Du har inga inställningar för hoppväder.nu

Hoppväder.nu

Senast uppdaterat 09:30

UTC-tid

2020-08-06 kl. 07:30


Sol och måne

Solen går upp 5:27 och går ner 21:58 (beräknade cirkatider)
Nästa fullmåne blir om 27 dagar (2020-09-02)

METAR

ESMS (Malmö)
(10 minuter sedan)
ESMS 060720Z 15005KT CAVOK 23/14 Q1022=



ESMK (Everöd)
(10 minuter sedan)
ESMK 060720Z 13003KT 100V170 CAVOK 24/15 Q1021=



ESTL (Ljungbyhed)
(10 minuter sedan)
ESTL 060720Z 10006KT CAVOK 23/15 Q1021=



EKCH (Köpenhamn)
(40 minuter sedan)
EKCH 060650Z AUTO 15006KT 9999 NCD 22/15 Q1021 NOSIG=



ESTA (Ängelholm)
(10 minuter sedan)
ESTA 060720Z AUTO 12008KT 9999 OVC078/// 22/15 Q1021=



TAF

ESMS (Malmö)
(141 minuter sedan)
ESMS 060509Z 0606/0706 14006KT CAVOK=



ESMK (Everöd)
(67 minuter sedan)
ESMK 060623Z 0607/0615 16008KT CAVOK=



ESTL (Ljungbyhed)
(142 minuter sedan)
ESTL 060508Z 0606/0615 17005KT CAVOK=



EKCH (Köpenhamn)
(142 minuter sedan)
EKCH 060508Z 0606/0706 15008KT CAVOK=



ESTA (Ängelholm)
ESTA





Kodnycklar till TAF och METAR






LHP

(Eslöv är område se11f i Hela Område 1)

Översikt

ÖVERSIKT FÖR OMRÅDE se1 UTFÄRDAD 060306

GÄLLANDE DEN 6 AUGUSTI 2020 MELLAN 04 OCH 12 UTC


Väderöversikt
Se väderöversikt för område se2 + se3

Sikt under 5 kilometer eller molnbas under 1000 fot
Väntas inte förekomma under perioden.

Måttlig eller svår isbildning
Väntas inte förekomma under perioden

Måttlig eller svår turbulens
Väntas inte förekomma under perioden

Hela Område 1

PROGNOS FÖR OMRÅDE se11 UTFÄRDAD 060306
GÄLLANDE DEN 6 AUGUSTI 2020 MELLAN 04 OCH 12 UTC

Måttlig eller svår turbulens
04-12UTC: I hela området: Väntas inte förekomma under perioden

Måttlig eller svår isbildning
04-12UTC: I hela området: Väntas inte förekomma under perioden

Sikt/Väder/Moln
04-12UTC: I hela området: Sikt >8km. Molnbas >4000ft.

Molnöversida
04-12UTC: I hela området: Ingen prognos

CB/TCU Moln
04-12UTC: I hela området: Väntas inte förekomma under perioden

Nollgradersisoterm
04-12UTC: Noll grader FL110 - > FL125.

Vind vid marken
04-06UTC: Område se11d: SO/0-9 knop, byar upp till 14 knop.
Område se11b: SO-S/3-9 knop.
Område se11f: SO/0-5 knop, byar upp till 12 knop.
Område se11h: S-SV/0-13 knop, byar upp till 18 knop.
Område se11g: S-SV/0-11 knop, byar upp till 15 knop.
Område se11e: SO/0-4 knop.
Område se11i: S-SV/3-14 knop, byar upp till 19 knop.
Område se11a: S-SV/0-9 knop, byar upp till 12 knop.
Område se11c: O-SO/1-6 knop.

06-08UTC: Område se11c: SO-S/3-8 knop.
Område se11a: S/1-11 knop, byar upp till 13 knop.
Område se11e: SO-S/1-5 knop.
Område se11b: SO-S/3-11 knop.
Område se11i: S-SV/3-13 knop, byar upp till 21 knop.
Område se11f: S/1-6 knop.
Område se11d: SO-S/1-9 knop, byar upp till 14 knop.
Område se11h: S-SV/1-13 knop, byar upp till 16 knop.
Område se11g: S/2-11 knop, byar upp till 13 knop.

08-10UTC: Område se11i: S/2-14 knop, byar upp till 20 knop.
Område se11f: S/3-8 knop, byar upp till 16 knop.
Område se11h: S/2-14 knop, byar upp till 18 knop.
Område se11d: S/3-9 knop, byar upp till 18 knop.
Område se11g: S/4-12 knop, byar upp till 15 knop.
Område se11e: S/0-6 knop, byar upp till 15 knop.
Område se11a: SO-S/1-9 knop, byar upp till 14 knop.
Område se11b: SO-S/1-11 knop, byar upp till 19 knop.
Område se11c: S/3-9 knop, byar upp till 15 knop.

10-12UTC: Område se11b: SO-S/4-12 knop, byar upp till 19 knop.
Område se11c: S-SV/5-12 knop, byar upp till 19 knop.
Område se11h: S/5-15 knop, byar upp till 20 knop.
Område se11f: S/4-9 knop, byar upp till 20 knop.
Område se11i: S/0-13 knop, byar upp till 21 knop.
Område se11e: S/0-10 knop, byar upp till 22 knop.
Område se11d: S-SV/4-10 knop, byar upp till 21 knop.
Område se11a: S/0-10 knop, byar upp till 20 knop.
Område se11g: SO-S/3-11 knop, byar upp till 16 knop.


Genomsnittlig vind och temperatur för området
2000ft:
04-06UTC: 240/13kt +19.
06-08UTC: 220/10kt +19.
08-10UTC: 200/11kt +19.
10-12UTC: 200/11kt +20.

FL50:
04-06UTC: 250/14kt +11.
06-08UTC: 230/10kt +12.
08-10UTC: 210/10kt +12.
10-12UTC: 200/10kt +12.

FL100:
04-06UTC: 250/17kt +1.
06-08UTC: 240/16kt +1.
08-10UTC: 240/14kt +1.
10-12UTC: 240/12kt +1.

Lägsta QNH
1019 hPa.

OBS! endast utbredd måttlig eller svår isbildning och turbulens prognostiseras i LLF.
Avsaknad av isbildning och turbulens i prognosen utesluter inte förekomst av lätt isbildning och turbulens.
För indikation på lätt isbildning, var vänlig kontrollera om prognosen för molntopp ligger högre än nollgradersisotermen.
Förekomst av TCU eller CB medför alltid en risk för måttlig eller svår isbildning och turbulens även om det inte framgår explicit av prognosen.







Spotting

Hur fungerar spotthjälpen och Vindkartan?

Markvind är ca 1-3 m/s.
Vind på 600 m ca 5 m/s.
Vind på 1500 m ca 5 m/s.
Vind på 3000 m ca 8 m/s.
Caravanen flyger ca 33 m/s över marken på finalen.
Du driver ca 370 m bakåt i frifall. (494 m)
Lämplig spot är 3 sekunder eller 99 m efter gropen.
(6 s eller 198 m)
För små grupper eller ensamhoppare bör man vänta 5-7 sekunder mellan grupperna.
För större grupper bör man vänta 9-11 sekunder mellan grupperna.


Vindkartan

Senast uppdaterad 09:30




All data kommer från LFV.se